Time;durP1;ratioP1;P1;durP2;ratioP2;P2;SDS_P1;SDS_P2;PMS_P1;PMS_P2;Temp;Humidity;BMP_temperature;BMP_pressure;BME280_temperature;BME280_humidity;BME280_pressure;Samples;Min_cycle;Max_cycle;Signal;HPM_P1;HPM_P2
2023/06/18 00:00:11;;;;;;;16.50;12.18;;;21.40;76.40;;;;;;5092611;28;20054;-37
2023/06/18 00:02:38;;;;;;;14.13;11.50;;;;;;;;;;5092408;28;20458;-37
2023/06/18 00:05:05;;;;;;;14.77;11.48;;;;;;;;;;5092538;28;20044;-37
2023/06/18 00:07:32;;;;;;;14.05;11.48;;;20.50;76.40;;;;;;5089396;28;20051;-37
2023/06/18 00:09:58;;;;;;;13.85;11.45;;;20.10;75.70;;;;;;5092736;28;20155;-37
2023/06/18 00:12:25;;;;;;;14.45;11.77;;;21.60;73.80;;;;;;5092245;28;20047;-37
2023/06/18 00:14:53;;;;;;;17.00;12.15;;;19.80;75.60;;;;;;5092174;28;20139;-37
2023/06/18 00:17:21;;;;;;;15.02;11.77;;;20.60;76.10;;;;;;5091724;28;20079;-38
2023/06/18 00:19:47;;;;;;;14.98;11.77;;;21.80;66.80;;;;;;5092450;28;20048;-37
2023/06/18 00:22:15;;;;;;;14.10;11.43;;;20.90;76.60;;;;;;5092027;28;20086;-37
2023/06/18 00:24:42;;;;;;;13.82;11.65;;;;;;;;;;5091473;28;20048;-36
2023/06/18 00:27:09;;;;;;;15.20;12.27;;;20.50;76.50;;;;;;5092309;28;20527;-39
2023/06/18 00:29:36;;;;;;;15.13;11.63;;;;;;;;;;5092056;28;20102;-38
2023/06/18 00:32:05;;;;;;;14.77;11.98;;;20.80;59.80;;;;;;5092146;28;20044;-39
2023/06/18 00:34:33;;;;;;;15.65;12.30;;;20.70;66.80;;;;;;5092164;28;20135;-38
2023/06/18 00:37:00;;;;;;;15.25;12.00;;;21.10;61.60;;;;;;5091439;28;20051;-39
2023/06/18 00:39:27;;;;;;;14.75;11.45;;;21.80;77.20;;;;;;5091949;28;20044;-39
2023/06/18 00:41:54;;;;;;;15.25;11.88;;;20.90;77.30;;;;;;5087245;28;20062;-40
2023/06/18 00:44:21;;;;;;;16.27;11.82;;;20.60;76.30;;;;;;5091832;28;20052;-39
2023/06/18 00:46:49;;;;;;;18.23;12.68;;;;;;;;;;5091799;28;20131;-39
2023/06/18 00:49:18;;;;;;;16.90;12.80;;;21.70;77.00;;;;;;5092207;28;20048;-40
2023/06/18 00:51:46;;;;;;;16.25;11.55;;;20.80;76.50;;;;;;5091780;28;20485;-40
2023/06/18 00:54:14;;;;;;;16.02;12.85;;;20.90;71.50;;;;;;5091597;28;20056;-38
2023/06/18 00:56:50;;;;;;;16.13;13.07;;;;;;;;;;5091553;28;20076;-38
2023/06/18 00:59:22;;;;;;;15.38;12.20;;;;;;;;;;5078876;28;20048;-35
2023/06/18 01:01:51;;;;;;;16.38;12.82;;;20.60;59.90;;;;;;5074022;28;20048;-37
2023/06/18 01:04:20;;;;;;;19.38;12.25;;;20.50;76.40;;;;;;5071772;28;20055;-40
2023/06/18 01:06:51;;;;;;;15.00;12.45;;;20.60;59.80;;;;;;5071453;28;20127;-35
2023/06/18 01:09:20;;;;;;;16.33;12.25;;;20.50;76.50;;;;;;5071904;28;20102;-41
2023/06/18 01:11:47;;;;;;;16.75;12.20;;;;;;;;;;5071479;28;20136;-38
2023/06/18 01:14:14;;;;;;;15.50;12.45;;;20.30;76.30;;;;;;5072357;28;20136;-40
2023/06/18 01:16:45;;;;;;;17.73;12.93;;;20.70;72.50;;;;;;5074481;28;20059;-38
2023/06/18 01:19:12;;;;;;;16.83;12.50;;;21.60;77.10;;;;;;5091479;28;20090;-39
2023/06/18 01:21:40;;;;;;;16.52;12.85;;;20.60;77.00;;;;;;5091848;28;20048;-40
2023/06/18 01:24:11;;;;;;;16.85;13.48;;;20.10;76.40;;;;;;5091361;28;20075;-40
2023/06/18 01:26:38;;;;;;;16.85;12.27;;;;;;;;;;5091545;28;20542;-39
2023/06/18 01:29:09;;;;;;;16.23;12.95;;;;;;;;;;5095527;28;20048;-37
2023/06/18 01:31:37;;;;;;;14.73;12.57;;;;;;;;;;5092448;28;20055;-38
2023/06/18 01:34:04;;;;;;;15.15;13.10;;;;;;;;;;5075166;28;20048;-36
2023/06/18 01:36:47;;;;;;;15.90;13.15;;;20.50;77.40;;;;;;5080326;28;20051;-39
2023/06/18 01:39:23;;;;;;;16.80;12.90;;;20.20;61.90;;;;;;5094900;28;20087;-37
2023/06/18 01:41:49;;;;;;;16.85;13.13;;;20.10;76.40;;;;;;5075631;28;20044;-41
2023/06/18 01:44:18;;;;;;;18.23;13.77;;;20.40;59.90;;;;;;5074779;28;20048;-40
2023/06/18 01:46:45;;;;;;;16.25;12.48;;;20.50;76.60;;;;;;5074849;28;20119;-39
2023/06/18 01:49:12;;;;;;;17.73;13.48;;;;;;;;;;5075994;28;20132;-37
2023/06/18 01:51:39;;;;;;;17.60;13.65;;;20.60;77.50;;;;;;5074748;28;20054;-41
2023/06/18 01:54:07;;;;;;;18.27;13.63;;;;;;;;;;5075971;28;20048;-36
2023/06/18 01:56:36;;;;;;;15.95;12.45;;;20.60;76.70;;;;;;5086795;28;20462;-37
2023/06/18 01:59:03;;;;;;;16.95;13.77;;;20.80;76.90;;;;;;5094797;28;20501;-41
2023/06/18 02:01:31;;;;;;;17.65;13.93;;;20.90;77.80;;;;;;5094776;28;20044;-40
2023/06/18 02:03:57;;;;;;;16.27;12.95;;;19.80;77.00;;;;;;5094927;28;20055;-39
2023/06/18 02:06:24;;;;;;;16.73;13.63;;;;;;;;;;5081441;28;20040;-38
2023/06/18 02:08:51;;;;;;;16.95;13.38;;;20.90;76.80;;;;;;5074536;28;20588;-41
2023/06/18 02:11:18;;;;;;;17.17;13.98;;;20.90;77.40;;;;;;5074575;28;20135;-40
2023/06/18 02:13:46;;;;;;;16.10;13.40;;;20.50;60.00;;;;;;5091953;28;20131;-39
2023/06/18 02:16:13;;;;;;;18.27;13.48;;;;;;;;;;5094689;28;20146;-39
2023/06/18 02:18:40;;;;;;;16.00;12.32;;;20.90;76.90;;;;;;5087555;28;20122;-40
2023/06/18 02:21:07;;;;;;;16.88;12.93;;;;;;;;;;5094521;28;20052;-35
2023/06/18 02:23:34;;;;;;;17.50;13.55;;;21.30;77.50;;;;;;5081146;28;20053;-41
2023/06/18 02:26:02;;;;;;;16.70;13.75;;;;;;;;;;5074246;28;20627;-36
2023/06/18 02:28:29;;;;;;;15.80;12.90;;;20.10;76.60;;;;;;5074194;28;20055;-39
2023/06/18 02:30:57;;;;;;;16.70;13.75;;;19.60;60.50;;;;;;5079475;28;20127;-38
2023/06/18 02:33:24;;;;;;;16.27;12.82;;;;;;;;;;5093984;28;20122;-38
2023/06/18 02:35:50;;;;;;;16.10;13.38;;;19.80;77.30;;;;;;5093917;28;20044;-41
2023/06/18 02:38:17;;;;;;;17.08;12.80;;;20.60;76.80;;;;;;5093819;28;20123;-41
2023/06/18 02:40:44;;;;;;;14.90;12.32;;;20.30;67.10;;;;;;5077466;28;20051;-40
2023/06/18 02:43:11;;;;;;;14.43;12.30;;;20.40;76.80;;;;;;5073693;28;20049;-41
2023/06/18 02:45:38;;;;;;;14.38;12.60;;;;;;;;;;5074188;28;20139;-37
2023/06/18 02:48:06;;;;;;;15.90;12.82;;;21.00;77.00;;;;;;5074236;28;20131;-41
2023/06/18 02:50:33;;;;;;;14.30;12.25;;;20.40;76.50;;;;;;5073756;28;20469;-40
2023/06/18 02:52:59;;;;;;;14.10;12.13;;;20.40;77.40;;;;;;5073491;28;20052;-41
2023/06/18 02:55:26;;;;;;;13.07;11.60;;;20.30;69.20;;;;;;5076176;28;20048;-41
2023/06/18 02:57:53;;;;;;;14.25;12.48;;;20.70;76.90;;;;;;5075098;28;20413;-41
2023/06/18 03:00:21;;;;;;;14.52;11.70;;;20.30;59.90;;;;;;5073763;28;20059;-38
2023/06/18 03:02:48;;;;;;;15.52;13.40;;;20.80;77.70;;;;;;5073239;28;20505;-41
2023/06/18 03:05:16;;;;;;;16.70;12.48;;;20.00;62.20;;;;;;5073729;28;20135;-39
2023/06/18 03:07:43;;;;;;;18.65;13.65;;;;;;;;;;5073618;28;20049;-38
2023/06/18 03:10:10;;;;;;;17.52;14.30;;;20.80;77.00;;;;;;5092706;28;20519;-40
2023/06/18 03:12:37;;;;;;;17.70;14.07;;;20.80;68.50;;;;;;5090397;28;20557;-40
2023/06/18 03:15:05;;;;;;;20.75;14.90;;;20.60;77.80;;;;;;5073537;28;20136;-38
2023/06/18 03:17:32;;;;;;;18.75;14.48;;;20.00;77.40;;;;;;5073361;28;20131;-41
2023/06/18 03:19:59;;;;;;;21.35;15.32;;;21.10;69.70;;;;;;5073526;28;20071;-38
2023/06/18 03:22:28;;;;;;;19.65;15.75;;;20.10;60.10;;;;;;5073027;28;20127;-40
2023/06/18 03:24:56;;;;;;;22.25;16.20;;;;;;;;;;5072987;28;20045;-38
2023/06/18 03:27:24;;;;;;;20.60;15.60;;;19.90;62.00;;;;;;5073180;28;20048;-39
2023/06/18 03:29:51;;;;;;;21.50;16.05;;;20.10;77.90;;;;;;5074257;28;20048;-41
2023/06/18 03:32:19;;;;;;;22.73;16.13;;;20.90;78.40;;;;;;5073112;28;20429;-40
2023/06/18 03:34:48;;;;;;;20.75;15.20;;;19.70;77.70;;;;;;5072850;28;20049;-39
2023/06/18 03:37:16;;;;;;;20.58;15.15;;;20.20;77.40;;;;;;5084280;28;20048;-41
2023/06/18 03:39:45;;;;;;;19.27;15.35;;;20.10;60.50;;;;;;5093129;28;20077;-39
2023/06/18 03:42:12;;;;;;;19.52;15.25;;;;;;;;;;5092722;28;20122;-41
2023/06/18 03:44:39;;;;;;;17.35;14.10;;;21.00;69.20;;;;;;5093237;28;20051;-41
2023/06/18 03:47:06;;;;;;;18.25;14.30;;;19.70;66.40;;;;;;5085791;28;20127;-39
2023/06/18 03:49:33;;;;;;;16.17;13.02;;;20.10;77.90;;;;;;5072718;28;20136;-41
2023/06/18 03:52:00;;;;;;;14.35;12.55;;;;;;;;;;5072430;28;20127;-38
2023/06/18 03:54:27;;;;;;;15.23;12.70;;;19.50;78.00;;;;;;5072700;28;20086;-41
2023/06/18 03:56:55;;;;;;;16.90;12.57;;;20.10;60.70;;;;;;5086789;28;20048;-41
2023/06/18 03:59:21;;;;;;;13.45;11.68;;;19.00;77.00;;;;;;5093000;28;20131;-41
2023/06/18 04:01:48;;;;;;;14.32;12.13;;;19.00;70.60;;;;;;5092854;28;20132;-39
2023/06/18 04:04:15;;;;;;;14.90;12.32;;;21.20;78.20;;;;;;5084248;28;20132;-41
2023/06/18 04:06:42;;;;;;;13.48;11.98;;;;;;;;;;5092633;28;20132;-39
2023/06/18 04:09:10;;;;;;;13.60;11.73;;;19.80;78.00;;;;;;5092377;28;20044;-40
2023/06/18 04:11:38;;;;;;;13.85;11.77;;;20.30;78.00;;;;;;5092887;28;20052;-41
2023/06/18 04:14:06;;;;;;;13.32;11.35;;;21.20;67.40;;;;;;5092328;28;20059;-40
2023/06/18 04:16:33;;;;;;;13.50;11.98;;;20.40;78.20;;;;;;5092536;28;20051;-41
2023/06/18 04:19:00;;;;;;;13.65;11.13;;;;;;;;;;5092290;28;20054;-41
2023/06/18 04:21:27;;;;;;;12.43;11.07;;;20.40;67.80;;;;;;5082501;28;20048;-40
2023/06/18 04:23:54;;;;;;;12.38;11.07;;;;;;;;;;5071644;28;20056;-39
2023/06/18 04:26:21;;;;;;;12.70;11.18;;;;;;;;;;5072209;28;20049;-36
2023/06/18 04:28:48;;;;;;;12.55;10.80;;;20.30;78.60;;;;;;5072070;28;20131;-41
2023/06/18 04:31:16;;;;;;;13.13;11.35;;;19.80;78.40;;;;;;5071718;28;20127;-41
2023/06/18 04:33:42;;;;;;;12.80;11.05;;;19.60;78.40;;;;;;5071665;28;20051;-41
2023/06/18 04:36:09;;;;;;;13.80;11.20;;;20.10;62.50;;;;;;5074296;28;20135;-39
2023/06/18 04:38:36;;;;;;;13.48;11.20;;;20.60;79.40;;;;;;5080254;28;20121;-41
2023/06/18 04:41:03;;;;;;;12.55;11.25;;;20.70;64.70;;;;;;5071923;28;20142;-39
2023/06/18 04:43:30;;;;;;;13.13;11.35;;;20.60;79.60;;;;;;5071689;28;20132;-41
2023/06/18 04:45:57;;;;;;;12.57;11.05;;;19.70;79.20;;;;;;5071639;28;20131;-41
2023/06/18 04:48:25;;;;;;;13.38;11.65;;;20.00;61.60;;;;;;5091817;28;20407;-36
2023/06/18 04:50:53;;;;;;;12.02;10.70;;;;;;;;;;5092015;28;20130;-38
2023/06/18 04:53:20;;;;;;;13.82;11.50;;;;;;;;;;5091876;28;20097;-38
2023/06/18 04:55:46;;;;;;;13.68;11.40;;;20.10;78.70;;;;;;5080151;28;20048;-41
2023/06/18 04:58:13;;;;;;;13.38;11.43;;;21.00;79.60;;;;;;5091926;28;20130;-41
2023/06/18 05:00:40;;;;;;;13.63;11.77;;;;;;;;;;5091562;28;20135;-37
2023/06/18 05:03:07;;;;;;;13.55;11.32;;;19.80;78.80;;;;;;5091363;28;20130;-41
2023/06/18 05:05:35;;;;;;;15.45;12.40;;;20.10;62.00;;;;;;5091617;28;20113;-36
2023/06/18 05:08:02;;;;;;;12.55;10.95;;;;;;;;;;5091901;28;20131;-37
2023/06/18 05:10:29;;;;;;;14.45;11.85;;;19.50;78.50;;;;;;5091823;28;20055;-41
2023/06/18 05:12:55;;;;;;;12.98;11.30;;;19.90;79.20;;;;;;5074591;28;20048;-41
2023/06/18 05:15:22;;;;;;;13.85;11.88;;;;;;;;;;5071407;28;20128;-39
2023/06/18 05:17:49;;;;;;;14.73;11.98;;;19.80;79.30;;;;;;5071672;28;20123;-41
2023/06/18 05:20:16;;;;;;;14.25;11.98;;;20.30;79.90;;;;;;5071659;28;20048;-40
2023/06/18 05:22:44;;;;;;;16.95;12.60;;;20.10;62.30;;;;;;5070900;28;20572;-39
2023/06/18 05:25:11;;;;;;;14.45;12.02;;;19.50;73.10;;;;;;5071397;28;20131;-41
2023/06/18 05:27:38;;;;;;;14.05;11.98;;;;;;;;;;5071400;28;20511;-38
2023/06/18 05:30:05;;;;;;;18.15;12.80;;;20.10;62.40;;;;;;5072305;28;20501;-37
2023/06/18 05:32:32;;;;;;;14.88;12.52;;;20.60;79.90;;;;;;5071352;28;20080;-39
2023/06/18 05:34:59;;;;;;;15.60;12.70;;;19.80;66.40;;;;;;5071082;28;20539;-37
2023/06/18 05:37:25;;;;;;;14.63;12.20;;;20.50;67.20;;;;;;5084198;28;20139;-41
2023/06/18 05:39:53;;;;;;;15.43;12.60;;;20.00;80.20;;;;;;5091156;28;20800;-41
2023/06/18 05:42:20;;;;;;;17.10;12.98;;;20.80;80.20;;;;;;5091192;28;20055;-41
2023/06/18 05:44:47;;;;;;;15.93;12.95;;;;;;;;;;5090626;28;20131;-38
2023/06/18 05:47:14;;;;;;;16.38;12.27;;;19.80;79.70;;;;;;5071476;28;20045;-41
2023/06/18 05:49:41;;;;;;;17.35;12.80;;;20.20;80.10;;;;;;5071478;28;20131;-41
2023/06/18 05:52:07;;;;;;;15.77;12.57;;;20.20;64.20;;;;;;5071141;28;20128;-40
2023/06/18 05:54:34;;;;;;;15.85;12.82;;;19.60;79.40;;;;;;5071068;28;20135;-41
2023/06/18 05:57:02;;;;;;;15.45;12.38;;;20.00;80.50;;;;;;5086246;28;20047;-41
2023/06/18 05:59:30;;;;;;;16.58;12.45;;;;;;;;;;5091583;28;20048;-37
2023/06/18 06:01:57;;;;;;;14.90;12.25;;;19.70;79.60;;;;;;5088128;28;20048;-40
2023/06/18 06:04:23;;;;;;;16.25;13.00;;;20.50;80.00;;;;;;5070651;28;20436;-40
2023/06/18 06:06:50;;;;;;;15.00;12.80;;;20.60;74.60;;;;;;5071029;28;20080;-40
2023/06/18 06:09:17;;;;;;;16.42;13.07;;;20.70;80.60;;;;;;5070972;28;20127;-41
2023/06/18 06:11:43;;;;;;;15.05;12.63;;;21.00;71.70;;;;;;5071083;28;20052;-40
2023/06/18 06:14:11;;;;;;;15.27;12.77;;;20.30;72.60;;;;;;5071845;28;20127;-41
2023/06/18 06:16:39;;;;;;;17.75;13.15;;;;;;;;;;5074739;28;20131;-38
2023/06/18 06:19:05;;;;;;;15.23;12.73;;;19.60;79.80;;;;;;5075637;28;20050;-41
2023/06/18 06:21:33;;;;;;;14.93;12.32;;;;;;;;;;5073940;28;20123;-36
2023/06/18 06:24:01;;;;;;;15.93;12.02;;;;;;;;;;5083760;28;20052;-37
2023/06/18 06:26:28;;;;;;;17.80;12.90;;;20.00;80.20;;;;;;5094727;28;20400;-41
2023/06/18 06:28:54;;;;;;;14.43;12.18;;;19.80;67.40;;;;;;5094153;28;20127;-40
2023/06/18 06:31:23;;;;;;;16.25;12.80;;;19.30;80.20;;;;;;5094705;28;20052;-41
2023/06/18 06:33:50;;;;;;;15.95;12.60;;;20.40;80.50;;;;;;5092850;28;20480;-40
2023/06/18 06:36:17;;;;;;;15.52;12.35;;;20.00;70.20;;;;;;5091777;28;20054;-40
2023/06/18 06:38:43;;;;;;;15.40;13.00;;;20.10;72.40;;;;;;5094135;28;20488;-41
2023/06/18 06:41:10;;;;;;;17.70;13.27;;;20.60;81.60;;;;;;5094478;28;20051;-40
2023/06/18 06:43:37;;;;;;;14.45;12.00;;;20.30;64.10;;;;;;5093627;28;20135;-38
2023/06/18 06:46:04;;;;;;;16.60;12.90;;;20.70;80.80;;;;;;5094268;28;20412;-40
2023/06/18 06:48:32;;;;;;;16.52;11.82;;;20.80;81.80;;;;;;5094150;28;20127;-41
2023/06/18 06:50:59;;;;;;;15.93;11.85;;;20.30;81.10;;;;;;5093964;28;20127;-41
2023/06/18 06:53:25;;;;;;;14.55;11.75;;;21.70;72.00;;;;;;5092177;28;20147;-40
2023/06/18 06:55:52;;;;;;;14.23;11.45;;;20.90;81.00;;;;;;5093997;28;20048;-40
2023/06/18 06:58:19;;;;;;;15.25;12.35;;;20.10;81.00;;;;;;5093961;28;20131;-41
2023/06/18 07:00:46;;;;;;;16.73;11.65;;;;;;;;;;5090681;28;20044;-38
2023/06/18 07:03:13;;;;;;;15.65;11.45;;;21.00;80.00;;;;;;5076245;28;20128;-40
2023/06/18 07:05:41;;;;;;;14.57;11.50;;;20.50;65.20;;;;;;5073497;28;20048;-40
2023/06/18 07:08:08;;;;;;;15.30;11.45;;;;;;;;;;5073823;28;20127;-37
2023/06/18 07:10:35;;;;;;;13.40;10.93;;;20.70;81.20;;;;;;5076433;28;20043;-41
2023/06/18 07:13:02;;;;;;;14.57;11.20;;;;;;;;;;5083402;28;20408;-37
2023/06/18 07:15:29;;;;;;;15.32;11.90;;;;;;;;;;5082303;28;20408;-38
2023/06/18 07:17:56;;;;;;;13.85;11.80;;;;;;;;;;5071773;28;20041;-35
2023/06/18 07:20:23;;;;;;;12.90;11.00;;;20.50;74.40;;;;;;5072575;28;20168;-39
2023/06/18 07:22:51;;;;;;;16.98;11.23;;;21.40;81.60;;;;;;5071489;28;20055;-40
2023/06/18 07:25:18;;;;;;;13.13;10.65;;;;;;;;;;5071015;28;20052;-40
2023/06/18 07:27:45;;;;;;;11.15;9.43;;;21.00;78.80;;;;;;5072354;28;20047;-40
2023/06/18 07:30:12;;;;;;;11.30;9.50;;;21.10;63.80;;;;;;5079847;28;20055;-38
2023/06/18 07:32:39;;;;;;;10.73;9.02;;;21.30;79.90;;;;;;5081234;28;20119;-41
2023/06/18 07:35:07;;;;;;;10.57;9.05;;;21.40;79.80;;;;;;5082143;28;20117;-41
2023/06/18 07:37:34;;;;;;;10.25;8.88;;;;;;;;;;5092329;28;20048;-36
2023/06/18 07:40:03;;;;;;;13.55;9.80;;;21.40;65.10;;;;;;5093363;28;20135;-41
2023/06/18 07:42:30;;;;;;;12.85;9.70;;;22.40;80.00;;;;;;5092828;28;20742;-41
2023/06/18 07:44:57;;;;;;;11.93;9.18;;;;;;;;;;5079720;28;20072;-37
2023/06/18 07:47:24;;;;;;;12.05;10.30;;;20.50;79.80;;;;;;5072706;28;20052;-41
2023/06/18 07:49:50;;;;;;;12.20;10.52;;;21.60;80.00;;;;;;5079024;28;20052;-40
2023/06/18 07:52:17;;;;;;;12.63;10.45;;;22.00;67.00;;;;;;5087061;28;20122;-39
2023/06/18 07:54:44;;;;;;;14.25;11.43;;;;;;;;;;5086950;28;20127;-39
2023/06/18 07:57:12;;;;;;;15.13;10.80;;;21.50;63.60;;;;;;5092642;28;20056;-37
2023/06/18 07:59:39;;;;;;;13.98;11.15;;;;;;;;;;5092530;28;20505;-37
2023/06/18 08:02:06;;;;;;;12.77;10.23;;;21.70;73.50;;;;;;5076823;28;20141;-41
2023/06/18 08:04:33;;;;;;;12.02;9.68;;;21.70;79.40;;;;;;5072530;28;20135;-40
2023/06/18 08:07:00;;;;;;;12.82;10.75;;;22.50;68.50;;;;;;5072167;28;20052;-41
2023/06/18 08:09:26;;;;;;;12.07;10.18;;;22.00;79.30;;;;;;5072398;28;20051;-40
2023/06/18 08:11:55;;;;;;;14.00;10.63;;;;;;;;;;5072194;28;20150;-41
2023/06/18 08:14:23;;;;;;;13.40;10.88;;;21.70;63.00;;;;;;5071974;28;20605;-37
2023/06/18 08:16:50;;;;;;;12.95;9.82;;;;;;;;;;5072345;28;20133;-41
2023/06/18 08:19:17;;;;;;;12.48;9.57;;;;;;;;;;5072938;28;20048;-40
2023/06/18 08:21:44;;;;;;;12.13;10.00;;;;;;;;;;5072155;28;20052;-36
2023/06/18 08:24:11;;;;;;;12.10;9.85;;;;;;;;;;5071971;28;20048;-40
2023/06/18 08:26:38;;;;;;;12.55;9.07;;;;;;;;;;5072082;28;20087;-38
2023/06/18 08:29:05;;;;;;;11.00;9.85;;;21.80;78.30;;;;;;5071912;28;20086;-40
2023/06/18 08:31:33;;;;;;;14.90;9.35;;;22.00;62.50;;;;;;5072066;28;20044;-41
2023/06/18 08:34:00;;;;;;;12.43;9.13;;;;;;;;;;5072868;28;20067;-35
2023/06/18 08:36:27;;;;;;;11.27;8.82;;;22.50;78.30;;;;;;5075799;28;20131;-40
2023/06/18 08:38:54;;;;;;;10.75;8.50;;;;;;;;;;5091797;28;20126;-41
2023/06/18 08:41:21;;;;;;;9.93;8.25;;;22.30;77.70;;;;;;5092039;28;20134;-41
2023/06/18 08:43:48;;;;;;;10.10;8.57;;;;;;;;;;5091607;28;20067;-41
2023/06/18 08:46:16;;;;;;;9.70;8.10;;;22.10;62.20;;;;;;5091826;28;20048;-38
2023/06/18 08:48:46;;;;;;;9.07;7.93;;;22.10;62.20;;;;;;5090818;28;20492;-38
2023/06/18 08:51:13;;;;;;;9.63;7.93;;;;;;;;;;5078314;28;20076;-32
2023/06/18 08:53:42;;;;;;;10.93;8.73;;;22.20;78.10;;;;;;5071375;28;20127;-32
2023/06/18 08:56:09;;;;;;;10.23;7.70;;;22.20;62.00;;;;;;5079893;28;20143;-34
2023/06/18 08:58:40;;;;;;;8.93;7.72;;;22.60;78.00;;;;;;5091937;28;20052;-33
2023/06/18 09:01:07;;;;;;;9.38;7.63;;;;;;;;;;5091984;28;20154;-35
2023/06/18 09:03:34;;;;;;;9.93;8.32;;;23.20;78.00;;;;;;5086009;28;20048;-33
2023/06/18 09:06:02;;;;;;;9.60;7.75;;;22.30;78.60;;;;;;5078954;28;20067;-31
2023/06/18 09:08:29;;;;;;;9.50;7.65;;;22.30;78.10;;;;;;5075911;28;20045;-32
2023/06/18 09:10:56;;;;;;;8.23;7.22;;;23.00;66.40;;;;;;5075272;28;20465;-34
2023/06/18 09:13:22;;;;;;;10.13;7.55;;;22.10;65.60;;;;;;5081364;28;20524;-32
2023/06/18 09:15:49;;;;;;;9.13;7.63;;;23.10;77.80;;;;;;5076954;28;20119;-32
2023/06/18 09:18:16;;;;;;;8.77;7.57;;;22.80;73.20;;;;;;5084569;28;20040;-34
2023/06/18 09:20:43;;;;;;;9.07;7.68;;;22.60;77.50;;;;;;5079199;28;20412;-32
2023/06/18 09:23:11;;;;;;;8.63;7.72;;;22.40;61.50;;;;;;5082361;28;20515;-33
2023/06/18 09:25:37;;;;;;;8.85;7.13;;;22.40;77.20;;;;;;5074701;28;20044;-32
2023/06/18 09:28:04;;;;;;;9.75;7.70;;;20.80;60.50;;;;;;5077582;28;20098;-38
2023/06/18 09:30:31;;;;;;;9.32;7.50;;;22.70;77.40;;;;;;5070977;28;20054;-31
2023/06/18 09:32:59;;;;;;;8.57;7.47;;;;;;;;;;5071013;28;20091;-35
2023/06/18 09:35:27;;;;;;;8.25;7.38;;;;;;;;;;5070415;28;20139;-35
2023/06/18 09:37:53;;;;;;;7.57;6.63;;;21.50;76.40;;;;;;5086562;28;20412;-31
2023/06/18 09:40:22;;;;;;;10.70;7.53;;;22.50;61.10;;;;;;5090859;28;20054;-37
2023/06/18 09:42:49;;;;;;;10.93;7.63;;;22.50;76.60;;;;;;5090339;28;20082;-32
2023/06/18 09:45:17;;;;;;;8.40;7.47;;;;;;;;;;5091114;28;20408;-36
2023/06/18 09:47:45;;;;;;;9.20;7.88;;;23.10;77.80;;;;;;5091918;28;20135;-32
2023/06/18 09:50:12;;;;;;;11.05;7.93;;;21.50;76.10;;;;;;5095242;28;20055;-32
2023/06/18 09:52:42;;;;;;;11.13;8.10;;;22.60;61.00;;;;;;5094609;28;20051;-35
2023/06/18 09:55:29;;;;;;;8.57;7.03;;;22.60;60.90;;;;;;5095251;28;20052;-33
2023/06/18 09:57:57;;;;;;;9.30;7.57;;;22.90;70.80;;;;;;5095140;28;20052;-33
2023/06/18 10:00:25;;;;;;;9.70;7.25;;;23.10;76.70;;;;;;5094303;28;20135;-32
2023/06/18 10:02:51;;;;;;;10.15;7.97;;;22.30;65.90;;;;;;5094578;28;20519;-32
2023/06/18 10:05:18;;;;;;;9.52;7.22;;;22.80;76.70;;;;;;5095180;28;20050;-31
2023/06/18 10:07:45;;;;;;;8.77;7.30;;;22.60;77.00;;;;;;5094925;28;20052;-32
2023/06/18 10:10:13;;;;;;;8.85;6.88;;;22.80;70.00;;;;;;5095082;28;20048;-32
2023/06/18 10:12:42;;;;;;;8.38;7.15;;;22.50;64.60;;;;;;5094390;28;20493;-32
2023/06/18 10:15:10;;;;;;;8.48;7.20;;;22.90;77.10;;;;;;5094831;28;20048;-32
2023/06/18 10:17:37;;;;;;;8.23;7.25;;;23.50;76.50;;;;;;5077457;28;20218;-32
2023/06/18 10:20:06;;;;;;;8.52;7.43;;;22.50;76.80;;;;;;5074692;28;20132;-33
2023/06/18 10:22:35;;;;;;;8.02;7.15;;;22.90;76.10;;;;;;5074239;28;20048;-32
2023/06/18 10:25:03;;;;;;;10.38;7.75;;;22.80;60.40;;;;;;5074357;28;20078;-36
2023/06/18 10:27:30;;;;;;;8.73;7.55;;;22.70;62.90;;;;;;5074156;28;20131;-34
2023/06/18 10:29:58;;;;;;;8.40;7.50;;;23.40;76.80;;;;;;5074289;28;20474;-31
2023/06/18 10:32:25;;;;;;;7.80;7.10;;;;;;;;;;5076418;28;20052;-31
2023/06/18 10:34:52;;;;;;;8.52;7.28;;;;;;;;;;5094555;28;20060;-35
2023/06/18 10:37:19;;;;;;;9.35;7.70;;;23.10;76.30;;;;;;5093737;28;20054;-32
2023/06/18 10:39:46;;;;;;;7.75;6.97;;;;;;;;;;5094300;28;20499;-36
2023/06/18 10:42:14;;;;;;;9.07;6.88;;;22.50;64.70;;;;;;5094209;28;20123;-33
2023/06/18 10:44:52;;;;;;;8.20;7.25;;;22.90;71.20;;;;;;5094355;28;20143;-32
2023/06/18 10:47:22;;;;;;;7.95;6.55;;;22.90;75.60;;;;;;5094166;28;20135;-31
2023/06/18 10:50:12;;;;;;;9.05;7.00;;;23.10;65.90;;;;;;5085590;28;20102;-40
2023/06/18 10:52:39;;;;;;;8.15;7.28;;;24.10;61.00;;;;;;5077178;28;20412;-37
2023/06/18 10:55:07;;;;;;;9.40;7.40;;;23.10;75.90;;;;;;5084848;28;20123;-41
2023/06/18 10:57:36;;;;;;;8.40;7.07;;;23.70;74.70;;;;;;5084774;28;20047;-39
2023/06/18 11:00:14;;;;;;;8.63;6.95;;;22.80;60.50;;;;;;5082284;28;20040;-37
2023/06/18 11:02:42;;;;;;;7.22;6.45;;;23.00;59.80;;;;;;5085604;28;20084;-37
2023/06/18 11:05:16;;;;;;;7.72;6.93;;;23.00;59.80;;;;;;5094217;28;20127;-34
2023/06/18 11:07:43;;;;;;;8.03;7.03;;;;;;;;;;5088528;28;20040;-38
2023/06/18 11:10:10;;;;;;;8.02;7.22;;;22.70;75.00;;;;;;5072959;28;20124;-37
2023/06/18 11:12:38;;;;;;;7.80;7.00;;;23.00;59.60;;;;;;5073175;28;20094;-34
2023/06/18 11:15:05;;;;;;;9.23;6.93;;;22.70;63.20;;;;;;5073260;28;20523;-39
2023/06/18 11:17:32;;;;;;;7.43;6.63;;;23.40;75.90;;;;;;5073336;28;20044;-40
2023/06/18 11:20:01;;;;;;;7.38;6.68;;;23.10;75.30;;;;;;5072864;28;20048;-31
2023/06/18 11:22:28;;;;;;;8.55;6.95;;;23.10;59.40;;;;;;5073119;28;20464;-35
2023/06/18 11:24:56;;;;;;;7.95;6.55;;;22.90;75.50;;;;;;5073282;28;20159;-31
2023/06/18 11:27:22;;;;;;;7.65;6.05;;;23.40;74.90;;;;;;5073051;28;20097;-32
2023/06/18 11:29:50;;;;;;;7.53;6.22;;;;;;;;;;5073111;28;20051;-31
2023/06/18 11:32:16;;;;;;;7.65;6.05;;;23.90;75.30;;;;;;5072732;28;20453;-31
2023/06/18 11:34:44;;;;;;;8.10;6.43;;;;;;;;;;5077102;28;20173;-33
2023/06/18 11:37:12;;;;;;;6.93;6.15;;;23.00;74.40;;;;;;5087589;28;20048;-31
2023/06/18 11:39:41;;;;;;;7.57;6.25;;;23.10;74.80;;;;;;5093216;28;20471;-31
2023/06/18 11:42:14;;;;;;;7.60;6.50;;;22.50;74.80;;;;;;5092589;28;20131;-31
2023/06/18 11:44:48;;;;;;;7.57;6.47;;;23.80;75.40;;;;;;5092677;28;20135;-31
2023/06/18 11:47:15;;;;;;;7.60;6.30;;;22.90;74.20;;;;;;5093068;28;20580;-32
2023/06/18 11:49:43;;;;;;;8.00;6.30;;;22.90;75.00;;;;;;5092228;28;20123;-31
2023/06/18 11:52:09;;;;;;;9.50;6.57;;;23.00;74.00;;;;;;5093032;28;20044;-31
2023/06/18 11:54:39;;;;;;;7.03;6.25;;;23.20;58.50;;;;;;5092598;28;20139;-35
2023/06/18 11:57:06;;;;;;;8.98;6.68;;;23.30;74.80;;;;;;5093080;28;20059;-31
2023/06/18 11:59:33;;;;;;;7.00;6.30;;;23.60;74.70;;;;;;5091478;28;20495;-31
2023/06/18 12:02:10;;;;;;;9.00;6.68;;;22.70;71.90;;;;;;5080015;28;20045;-31
2023/06/18 12:04:37;;;;;;;7.30;6.15;;;24.00;61.90;;;;;;5072004;28;20052;-33
2023/06/18 12:07:04;;;;;;;6.57;5.82;;;23.20;73.60;;;;;;5071995;28;20127;-31
2023/06/18 12:09:32;;;;;;;6.70;6.00;;;23.20;58.00;;;;;;5073031;28;20402;-34
2023/06/18 12:12:07;;;;;;;9.25;6.38;;;23.20;57.90;;;;;;5077402;28;20052;-31
2023/06/18 12:14:34;;;;;;;;;;;23.20;58.40;;;;;;5081619;28;20041;-32
2023/06/18 12:17:04;;;;;;;6.68;5.90;;;23.70;74.90;;;;;;5080038;28;19924;-31
2023/06/18 12:19:31;;;;;;;8.30;6.07;;;22.60;74.00;;;;;;5081428;28;20047;-31
2023/06/18 12:21:58;;;;;;;7.40;6.40;;;22.30;64.40;;;;;;5084845;28;20097;-32
2023/06/18 12:24:28;;;;;;;7.85;5.95;;;23.50;73.60;;;;;;5082263;28;20553;-31
2023/06/18 12:26:54;;;;;;;7.18;6.32;;;24.50;74.10;;;;;;5080848;28;20056;-31
2023/06/18 12:29:25;;;;;;;6.93;5.95;;;23.30;57.90;;;;;;5076441;28;20127;-35
2023/06/18 12:32:02;;;;;;;6.60;5.82;;;23.30;57.80;;;;;;5084931;28;20154;-34
2023/06/18 12:34:29;;;;;;;7.60;6.22;;;23.30;74.20;;;;;;5092046;28;20504;-31
2023/06/18 12:36:56;;;;;;;6.90;6.20;;;23.30;59.70;;;;;;5090877;28;20134;-33
2023/06/18 12:39:23;;;;;;;6.28;5.68;;;22.30;73.10;;;;;;5092213;28;20073;-31
2023/06/18 12:41:51;;;;;;;6.30;5.70;;;23.30;73.30;;;;;;5091975;28;20048;-31
2023/06/18 12:44:19;;;;;;;6.80;6.10;;;22.90;73.20;;;;;;5076462;28;20131;-31
2023/06/18 12:46:47;;;;;;;6.60;5.43;;;23.20;73.20;;;;;;5071683;28;20409;-31
2023/06/18 12:49:15;;;;;;;7.13;6.00;;;23.50;73.40;;;;;;5071901;28;20041;-31
2023/06/18 12:51:43;;;;;;;6.28;5.68;;;;;;;;;;5076104;28;20149;-36
2023/06/18 12:54:14;;;;;;;8.13;6.30;;;23.30;62.80;;;;;;5079537;28;20131;-31
2023/06/18 12:56:47;;;;;;;7.45;6.05;;;22.90;58.80;;;;;;5090907;28;20044;-32